Deepwater, New Jersey
Current Conditions -  °F | °C
As of 10:51 PM on Friday 28 Nov 2014 (Local Time) from KILG Reporting Station
Clear Clear  
Wind Chill: 28°   Ceiling: Unl
Heat Index: 28°   Visibility: 10mi
Dew Point: 18°   Wind: 3mph
Humidity: 66%   Direction: 260°W
Pressure: 30.3"   Gusts: NA
Location:  39.68°N, 75.49°W
Report Text: KILG 290351Z AUTO 26003KT 10SM CLR M02/M08 A3030 RMK AO2 SLP260 T10221078
Loading
Personal Weather Stations






























Interactive Weather Map New forecast layout! Learn more

10-Day Weather Forecast

Advertisements
Track Severe Weather on mobile